This is the latest recevied weather packets stored in our database for station/object IZ5MJO-13. If no packets are shown the sender has not sent any weather packets the latest 10 day(s).
| Time | Temp. | Humidity | Pressure | Rain* | Wind** | Luminosity | Snow |
|---|---|---|---|---|---|---|---|
| 1777661172 | 23.33° C | 21% | 1012.3 hPa | - | - | - | - |
| 1777661155 | 23.33° C | 20% | 1012.5 hPa | - | - | - | - |
| 1777661067 | 23.33° C | 18% | 1012.5 hPa | - | - | - | - |
| 1777661021 | 13.33° C | 24% | 1012.9 hPa | - | - | - | - |
| 1777660121 | 13.89° C | 24% | 1012.7 hPa | - | - | - | - |
| 1777659221 | 15° C | 23% | 1012.8 hPa | - | - | - | - |
| 1777658321 | 16.11° C | 21% | 1012.5 hPa | - | - | - | - |
| 1777657420 | 18.33° C | 20% | 1012.4 hPa | - | - | - | - |
| 1777656520 | 20° C | 20% | 1012.3 hPa | - | - | - | - |
| 1777655619 | 20° C | 19% | 1012.2 hPa | - | - | - | - |
| 1777654719 | 20.56° C | 19% | 1012.2 hPa | - | - | - | - |
| 1777653819 | 21.11° C | 20% | 1011.9 hPa | - | - | - | - |
| 1777652918 | 21.67° C | 20% | 1011.9 hPa | - | - | - | - |
| 1777652018 | 21.67° C | 20% | 1011.9 hPa | - | - | - | - |
| 1777651118 | 22.78° C | 20% | 1012 hPa | - | - | - | - |
| 1777650217 | 22.22° C | 21% | 1012.1 hPa | - | - | - | - |
| 1777649317 | 22.78° C | 21% | 1012.2 hPa | - | - | - | - |
| 1777648417 | 23.33° C | 21% | 1012.2 hPa | - | - | - | - |
| 1777647516 | 23.33° C | 21% | 1012.3 hPa | - | - | - | - |
| 1777646616 | 23.33° C | 20% | 1012.5 hPa | - | - | - | - |
| 1777645716 | 23.33° C | 18% | 1012.5 hPa | - | - | - | - |
| 1777644822 | 23.89° C | 19% | 1012.6 hPa | - | - | - | - |
| 1777643921 | 23.33° C | 21% | 1012.6 hPa | - | - | - | - |
| 1777643021 | 22.78° C | 23% | 1012.6 hPa | - | - | - | - |
| 1777642121 | 22.78° C | 23% | 1012.6 hPa | - | - | - | - |
* Rain since midnight (hover to see other rain measurements)
** Current wind speed in m/s (hover to see current wind gust speed)